Time;durP1;ratioP1;P1;durP2;ratioP2;P2;SDS_P1;SDS_P2;PMS_P1;PMS_P2;Temp;Humidity;BMP_temperature;BMP_pressure;BME280_temperature;BME280_humidity;BME280_pressure;Samples;Min_cycle;Max_cycle;Signal;HPM_P1;HPM_P2
2022/12/26 00:00:10;;;;;;;7.22;6.25;;;11.40;99.90;;;;;;5015542;28;20529;-55
2022/12/26 00:02:56;;;;;;;8.95;6.05;;;11.40;99.90;;;;;;5015597;28;20025;-52
2022/12/26 00:05:42;;;;;;;7.50;6.20;;;11.30;99.90;;;;;;5015263;28;20030;-54
2022/12/26 00:08:28;;;;;;;8.18;6.60;;;11.40;99.90;;;;;;5014757;28;20026;-50
2022/12/26 00:11:15;;;;;;;6.60;5.97;;;11.40;99.90;;;;;;5013939;28;20057;-49
2022/12/26 00:14:08;;;;;;;7.45;6.70;;;11.50;99.90;;;;;;5015431;28;20101;-52
2022/12/26 00:16:54;;;;;;;6.75;6.05;;;11.50;99.90;;;;;;5015340;28;20029;-51
2022/12/26 00:19:40;;;;;;;6.35;5.75;;;11.40;99.90;;;;;;5014704;28;20116;-51
2022/12/26 00:22:26;;;;;;;6.75;6.15;;;11.40;99.90;;;;;;5015015;28;20026;-52
2022/12/26 00:25:12;;;;;;;6.47;5.88;;;11.30;99.90;;;;;;5014685;28;20034;-53
2022/12/26 00:27:58;;;;;;;9.23;5.93;;;11.40;99.90;;;;;;5014620;28;20030;-54
2022/12/26 00:30:44;;;;;;;6.57;5.90;;;11.40;99.90;;;;;;5014907;28;20160;-50
2022/12/26 00:33:30;;;;;;;8.02;5.78;;;11.30;99.90;;;;;;5013773;28;20048;-53
2022/12/26 00:36:26;;;;;;;6.75;5.85;;;11.30;99.90;;;;;;5013862;28;20080;-54
2022/12/26 00:39:12;;;;;;;7.80;6.07;;;11.30;99.90;;;;;;5014364;28;20076;-52
2022/12/26 00:41:58;;;;;;;6.35;5.63;;;11.40;99.90;;;;;;5014425;28;20025;-51
2022/12/26 00:44:43;;;;;;;6.85;5.25;;;11.40;99.90;;;;;;5014124;28;20022;-51
2022/12/26 00:47:29;;;;;;;7.45;6.05;;;11.40;99.90;;;;;;5014713;28;20115;-50
2022/12/26 00:50:15;;;;;;;6.85;5.97;;;11.40;99.90;;;;;;5014443;28;20029;-49
2022/12/26 00:53:01;;;;;;;7.90;6.28;;;11.30;99.90;;;;;;5013651;28;20084;-51
2022/12/26 00:55:48;;;;;;;5.97;5.38;;;11.40;99.90;;;;;;5014434;28;20385;-52
2022/12/26 00:58:34;;;;;;;5.93;4.72;;;11.50;99.90;;;;;;5013917;28;20028;-50
2022/12/26 01:01:21;;;;;;;8.25;5.55;;;11.60;99.90;;;;;;5014277;28;20022;-51
2022/12/26 01:04:07;;;;;;;7.05;5.32;;;11.60;99.90;;;;;;5013888;28;20030;-53
2022/12/26 01:06:53;;;;;;;6.95;5.03;;;11.60;99.90;;;;;;5015038;28;20033;-56
2022/12/26 01:09:39;;;;;;;5.88;5.28;;;11.60;99.90;;;;;;5014801;28;20058;-50
2022/12/26 01:12:26;;;;;;;6.65;5.70;;;11.70;99.90;;;;;;5013520;28;20029;-50
2022/12/26 01:15:12;;;;;;;5.45;4.53;;;11.70;99.90;;;;;;5014076;28;20037;-49
2022/12/26 01:17:59;;;;;;;5.57;4.60;;;11.80;99.90;;;;;;5014045;28;20018;-50
2022/12/26 01:20:45;;;;;;;5.00;4.50;;;11.80;99.90;;;;;;5013833;28;20569;-50
2022/12/26 01:23:31;;;;;;;6.05;4.70;;;11.90;99.90;;;;;;5014021;28;20506;-50
2022/12/26 01:26:17;;;;;;;5.90;4.97;;;11.90;99.90;;;;;;5013352;28;20492;-49
2022/12/26 01:29:03;;;;;;;6.20;5.50;;;11.90;99.90;;;;;;5013856;28;20026;-53
2022/12/26 01:31:48;;;;;;;5.65;4.85;;;11.90;99.90;;;;;;5012989;28;20025;-53
2022/12/26 01:34:34;;;;;;;5.75;4.95;;;11.90;99.90;;;;;;5012506;28;20034;-52
2022/12/26 01:37:22;;;;;;;12.02;4.90;;;11.80;99.90;;;;;;5012403;28;20026;-52
2022/12/26 01:40:10;;;;;;;6.30;4.72;;;11.80;99.90;;;;;;5012888;28;20026;-49
2022/12/26 01:42:56;;;;;;;5.75;4.47;;;11.80;99.90;;;;;;5000140;28;20022;-60
2022/12/26 01:45:47;;;;;;;5.47;4.78;;;11.90;99.90;;;;;;5014149;28;20065;-50
2022/12/26 01:48:33;;;;;;;5.85;5.07;;;11.90;99.90;;;;;;5015545;28;20038;-53
2022/12/26 01:51:23;;;;;;;5.72;4.75;;;11.90;99.90;;;;;;5016383;28;20557;-55
2022/12/26 01:54:12;;;;;;;6.10;4.78;;;11.80;99.90;;;;;;5016468;28;20050;-54
2022/12/26 01:57:00;;;;;;;6.15;5.20;;;11.90;99.90;;;;;;5016628;28;20105;-52
2022/12/26 01:59:49;;;;;;;6.43;5.20;;;11.90;99.90;;;;;;5013370;28;20445;-55
2022/12/26 02:06:17;;;;;;;9.63;5.43;;;11.80;99.90;;;;;;5012952;28;20022;-53
2022/12/26 02:09:04;;;;;;;5.68;5.00;;;11.70;99.90;;;;;;5013492;28;20026;-51
2022/12/26 02:12:27;;;;;;;6.40;5.00;;;11.70;99.90;;;;;;5014278;28;20029;-54
2022/12/26 02:15:16;;;;;;;7.15;5.60;;;11.70;99.90;;;;;;5018082;28;20049;-52
2022/12/26 02:18:02;;;;;;;7.05;5.25;;;11.60;99.90;;;;;;5012000;28;20022;-52
2022/12/26 02:21:24;;;;;;;5.90;5.13;;;11.60;99.90;;;;;;5012654;28;20109;-53
2022/12/26 02:24:31;;;;;;;7.25;5.85;;;11.60;99.90;;;;;;5012957;28;20022;-53
2022/12/26 02:27:46;;;;;;;6.78;4.90;;;11.50;99.90;;;;;;5012880;28;20018;-52
2022/12/26 02:30:52;;;;;;;7.13;5.25;;;11.50;99.90;;;;;;5012556;28;20505;-53
2022/12/26 02:33:58;;;;;;;6.22;5.25;;;11.50;99.90;;;;;;5012636;28;20022;-52
2022/12/26 02:37:24;;;;;;;5.45;4.38;;;11.50;99.90;;;;;;5012702;28;20121;-48
2022/12/26 02:40:29;;;;;;;7.45;5.28;;;11.50;99.90;;;;;;5011955;28;20092;-50
2022/12/26 02:43:22;;;;;;;5.07;4.57;;;11.60;99.90;;;;;;5012025;28;20113;-51
2022/12/26 03:13:10;;;;;;;5.78;4.85;;;11.70;99.90;;;;;;5049104;28;20505;-51
2022/12/26 03:19:13;;;;;;;8.73;5.10;;;11.60;99.90;;;;;;5011812;28;20053;-51
2022/12/26 03:22:29;;;;;;;6.18;4.60;;;11.60;99.90;;;;;;5012022;28;20054;-48
2022/12/26 03:28:22;;;;;;;5.95;4.70;;;11.50;99.90;;;;;;5015592;28;20026;-53
2022/12/26 03:31:10;;;;;;;7.30;4.90;;;11.50;99.90;;;;;;5015140;28;20490;-52
2022/12/26 03:34:16;;;;;;;6.70;4.53;;;11.50;99.90;;;;;;5016216;28;20038;-55
2022/12/26 03:37:29;;;;;;;5.60;4.65;;;11.40;99.90;;;;;;5015986;28;20026;-50
2022/12/26 04:19:22;;;;;;;5.93;4.57;;;11.40;99.90;;;;;;5019068;28;20029;-51
2022/12/26 04:20:39;;;;;;;4.95;4.43;;;11.50;99.90;;;;;;5014684;28;20022;-52
2022/12/26 04:46:08;;;;;;;6.13;4.68;;;11.50;99.90;;;;;;5014057;28;20087;-49
2022/12/26 04:52:02;;;;;;;6.00;4.60;;;11.40;99.90;;;;;;5013963;28;20410;-50
2022/12/26 04:54:48;;;;;;;5.75;4.45;;;11.50;99.90;;;;;;5014434;28;20420;-52
2022/12/26 04:57:34;;;;;;;5.95;4.65;;;11.50;99.90;;;;;;5014461;28;20445;-46
2022/12/26 05:00:21;;;;;;;6.00;4.32;;;11.50;99.90;;;;;;5014076;28;20022;-49
2022/12/26 05:09:33;;;;;;;6.30;4.55;;;11.50;99.90;;;;;;5013521;28;20033;-49
2022/12/26 05:12:20;;;;;;;6.18;4.47;;;11.50;99.90;;;;;;5013234;28;20034;-50
2022/12/26 05:15:06;;;;;;;5.43;4.55;;;11.60;99.90;;;;;;5014237;28;20029;-50
2022/12/26 05:30:19;;;;;;;5.45;4.80;;;11.70;99.90;;;;;;5012891;28;20038;-49
2022/12/26 05:36:10;;;;;;;5.38;4.38;;;11.70;99.90;;;;;;5013120;28;20034;-54
2022/12/26 05:38:56;;;;;;;5.82;4.30;;;11.70;99.90;;;;;;5013105;28;20030;-51
2022/12/26 05:41:42;;;;;;;7.95;5.18;;;11.80;99.90;;;;;;5013070;28;20088;-49
2022/12/26 05:44:28;;;;;;;7.75;4.78;;;11.70;99.90;;;;;;5013411;28;20026;-50
2022/12/26 05:47:14;;;;;;;8.77;5.35;;;11.70;99.90;;;;;;5012145;28;20092;-52
2022/12/26 05:50:00;;;;;;;6.85;4.60;;;11.60;99.90;;;;;;5012435;28;20026;-49
2022/12/26 05:52:46;;;;;;;6.47;4.65;;;11.70;99.90;;;;;;5013476;28;20033;-50
2022/12/26 05:55:32;;;;;;;6.43;4.53;;;11.60;99.90;;;;;;5012188;28;20030;-49
2022/12/26 05:58:18;;;;;;;9.38;4.90;;;11.50;99.90;;;;;;5012923;28;20105;-49
2022/12/26 06:01:04;;;;;;;6.50;4.70;;;11.40;99.90;;;;;;5012979;28;20037;-48
2022/12/26 06:03:53;;;;;;;14.27;10.30;;;11.40;99.90;;;;;;5012950;28;20030;-48
2022/12/26 06:06:39;;;;;;;6.88;5.47;;;11.40;99.90;;;;;;5012742;28;20033;-48
2022/12/26 06:09:25;;;;;;;8.32;4.93;;;11.40;99.90;;;;;;5013122;28;20038;-53
2022/12/26 06:12:11;;;;;;;5.82;5.22;;;11.50;99.90;;;;;;5012486;28;20037;-49
2022/12/26 06:14:57;;;;;;;7.95;4.57;;;11.40;99.90;;;;;;5013165;28;20080;-49
2022/12/26 06:17:43;;;;;;;6.93;4.85;;;11.40;99.90;;;;;;5013097;28;20429;-50
2022/12/26 06:20:29;;;;;;;11.40;5.10;;;11.40;99.90;;;;;;5012716;28;20442;-50
2022/12/26 06:23:15;;;;;;;7.03;4.63;;;11.30;99.90;;;;;;5012411;28;20022;-48
2022/12/26 06:26:02;;;;;;;6.10;4.82;;;11.30;99.90;;;;;;5012893;28;20449;-49
2022/12/26 06:28:47;;;;;;;7.03;5.35;;;11.40;99.90;;;;;;5012983;28;20117;-49
2022/12/26 06:31:33;;;;;;;6.80;4.97;;;11.40;99.90;;;;;;5012119;28;20494;-47
2022/12/26 06:34:19;;;;;;;6.55;4.60;;;11.30;99.90;;;;;;5011108;28;20083;-50
2022/12/26 06:37:05;;;;;;;7.85;5.40;;;11.30;99.90;;;;;;5012214;28;20018;-49
2022/12/26 06:39:51;;;;;;;8.52;5.00;;;11.30;99.90;;;;;;5012030;28;20022;-49
2022/12/26 06:42:37;;;;;;;9.77;4.75;;;11.40;99.90;;;;;;5012495;28;20066;-50
2022/12/26 06:45:23;;;;;;;9.25;5.13;;;11.30;99.90;;;;;;5012265;28;20117;-51
2022/12/26 06:48:09;;;;;;;9.45;5.10;;;11.30;99.90;;;;;;5012738;28;20034;-53
2022/12/26 06:50:55;;;;;;;6.68;5.13;;;11.40;99.90;;;;;;5012189;28;20050;-48
2022/12/26 06:53:41;;;;;;;7.82;6.15;;;11.40;99.90;;;;;;5012165;28;20041;-54
2022/12/26 06:56:28;;;;;;;8.02;5.78;;;11.30;99.90;;;;;;5011820;28;20030;-54
2022/12/26 06:59:14;;;;;;;8.60;5.05;;;11.30;99.90;;;;;;5012464;28;20153;-53
2022/12/26 07:02:00;;;;;;;6.65;5.25;;;11.40;99.90;;;;;;5010962;28;20061;-52
2022/12/26 07:04:46;;;;;;;7.28;4.72;;;11.30;99.90;;;;;;5012111;28;20034;-48
2022/12/26 07:07:32;;;;;;;8.35;5.40;;;11.30;99.90;;;;;;5012029;28;20068;-49
2022/12/26 07:10:19;;;;;;;5.78;5.00;;;11.30;99.90;;;;;;5011279;28;20053;-49
2022/12/26 07:13:05;;;;;;;6.60;5.20;;;11.40;99.90;;;;;;5012166;28;20086;-49
2022/12/26 07:15:51;;;;;;;9.13;5.00;;;11.40;99.90;;;;;;5011547;28;20505;-49
2022/12/26 07:18:37;;;;;;;5.95;4.22;;;11.40;99.90;;;;;;5012146;28;20080;-49
2022/12/26 07:21:24;;;;;;;8.40;5.05;;;11.40;99.90;;;;;;5011137;28;20054;-49
2022/12/26 07:24:17;;;;;;;7.85;5.03;;;11.40;99.90;;;;;;5012048;28;20029;-54
2022/12/26 07:27:03;;;;;;;12.10;5.28;;;11.50;99.90;;;;;;5012099;28;20026;-52
2022/12/26 07:29:49;;;;;;;6.55;4.63;;;11.50;99.90;;;;;;5011448;28;20041;-53
2022/12/26 07:32:35;;;;;;;6.07;4.53;;;11.60;99.90;;;;;;5011996;28;20069;-49
2022/12/26 07:35:21;;;;;;;6.43;4.95;;;11.60;99.90;;;;;;5012111;28;20042;-56
2022/12/26 07:38:07;;;;;;;8.32;4.32;;;11.60;99.90;;;;;;5011893;28;20106;-53
2022/12/26 07:40:55;;;;;;;7.60;4.60;;;11.70;99.90;;;;;;5011124;28;20026;-49
2022/12/26 07:43:41;;;;;;;5.28;4.45;;;11.80;99.90;;;;;;5011371;28;20564;-53
2022/12/26 07:46:27;;;;;;;9.27;5.32;;;11.80;99.90;;;;;;5011842;28;20034;-54
2022/12/26 07:49:13;;;;;;;9.07;5.55;;;11.80;99.90;;;;;;5011912;28;20022;-55
2022/12/26 07:51:59;;;;;;;6.15;5.00;;;11.80;99.90;;;;;;5011647;28;20690;-52
2022/12/26 07:54:45;;;;;;;6.35;4.50;;;11.80;99.90;;;;;;5011367;28;20032;-53
2022/12/26 07:57:31;;;;;;;7.45;4.72;;;11.80;99.90;;;;;;5011353;28;20026;-53
2022/12/26 08:00:18;;;;;;;7.93;4.85;;;11.80;99.90;;;;;;5011042;28;20019;-48
2022/12/26 08:03:04;;;;;;;8.77;5.20;;;11.90;99.90;;;;;;5011917;28;20159;-52
2022/12/26 08:05:50;;;;;;;7.07;4.63;;;11.80;99.90;;;;;;5011176;28;20088;-55
2022/12/26 08:08:36;;;;;;;6.35;4.55;;;11.80;99.90;;;;;;5011688;28;20072;-53
2022/12/26 08:11:23;;;;;;;8.88;4.47;;;11.90;99.90;;;;;;5010961;28;20520;-50
2022/12/26 08:14:11;;;;;;;7.25;4.45;;;12.00;99.90;;;;;;5014428;28;20398;-51
2022/12/26 08:16:57;;;;;;;5.57;4.20;;;11.90;99.90;;;;;;5015270;28;20022;-49
2022/12/26 08:19:43;;;;;;;6.72;4.95;;;11.90;99.90;;;;;;5015182;28;20161;-51
2022/12/26 08:22:29;;;;;;;10.25;5.93;;;12.00;99.90;;;;;;5014928;28;20033;-49
2022/12/26 08:25:15;;;;;;;5.25;4.35;;;12.00;99.90;;;;;;5014562;28;20471;-53
2022/12/26 08:28:01;;;;;;;5.38;4.20;;;12.00;99.90;;;;;;5015112;28;20026;-52
2022/12/26 08:30:48;;;;;;;5.75;4.07;;;12.00;99.90;;;;;;5014642;28;20107;-52
2022/12/26 08:33:34;;;;;;;5.68;4.30;;;12.00;99.90;;;;;;5014255;28;20405;-51
2022/12/26 08:36:20;;;;;;;7.55;4.28;;;12.00;99.90;;;;;;5015041;28;20018;-54
2022/12/26 08:39:06;;;;;;;5.55;4.05;;;12.00;99.90;;;;;;5014287;28;20030;-54
2022/12/26 08:41:52;;;;;;;5.88;4.57;;;12.00;99.90;;;;;;5013012;28;20064;-52
2022/12/26 08:44:38;;;;;;;4.88;4.20;;;12.00;99.90;;;;;;5014277;28;20030;-55
2022/12/26 08:47:26;;;;;;;5.30;4.10;;;12.00;99.90;;;;;;5013829;28;20045;-51
2022/12/26 08:50:12;;;;;;;7.65;4.60;;;12.00;99.90;;;;;;5013432;28;20161;-54
2022/12/26 08:52:57;;;;;;;6.07;4.18;;;12.00;99.90;;;;;;5014986;28;20059;-52
2022/12/26 08:55:43;;;;;;;6.15;4.15;;;12.00;99.90;;;;;;5014095;28;20073;-48
2022/12/26 08:58:29;;;;;;;6.25;4.38;;;12.10;99.90;;;;;;5014025;28;20108;-53
2022/12/26 09:01:29;;;;;;;6.50;4.22;;;12.10;99.90;;;;;;5014464;28;20034;-53
2022/12/26 09:04:15;;;;;;;6.47;4.47;;;12.10;99.90;;;;;;5013732;28;20511;-55
2022/12/26 09:07:06;;;;;;;5.53;3.97;;;12.20;99.90;;;;;;5013650;28;20643;-52
2022/12/26 09:09:52;;;;;;;7.07;4.72;;;12.20;99.90;;;;;;5013889;28;20022;-51
2022/12/26 09:12:38;;;;;;;6.95;4.32;;;12.10;99.90;;;;;;5012628;28;20522;-50
2022/12/26 09:15:24;;;;;;;7.70;4.50;;;12.10;99.90;;;;;;5014018;28;20030;-52
2022/12/26 09:18:10;;;;;;;5.28;4.22;;;12.10;99.90;;;;;;5014109;28;20018;-46
2022/12/26 09:21:04;;;;;;;6.32;4.30;;;12.00;99.90;;;;;;5013200;28;20066;-45
2022/12/26 09:23:54;;;;;;;8.63;4.63;;;12.10;99.90;;;;;;5014062;28;20446;-50
2022/12/26 09:26:41;;;;;;;5.72;4.35;;;12.10;99.90;;;;;;5013526;28;20030;-48
2022/12/26 09:29:30;;;;;;;5.35;4.20;;;12.10;99.90;;;;;;5013955;28;20026;-52
2022/12/26 09:32:16;;;;;;;6.15;4.28;;;12.20;99.90;;;;;;5013681;28;20112;-50
2022/12/26 09:35:02;;;;;;;5.72;4.68;;;12.20;99.90;;;;;;5013272;28;20038;-52
2022/12/26 09:37:48;;;;;;;5.78;4.28;;;12.10;99.90;;;;;;5013804;28;20030;-53
2022/12/26 09:40:57;;;;;;;6.30;4.00;;;12.10;99.90;;;;;;5013462;28;20092;-51
2022/12/26 09:43:58;;;;;;;9.50;4.68;;;12.10;99.90;;;;;;5014370;28;20114;-52
2022/12/26 09:47:14;;;;;;;6.72;5.25;;;12.10;99.90;;;;;;5013070;28;20514;-48
2022/12/26 09:50:09;;;;;;;6.97;5.05;;;12.00;99.90;;;;;;5013729;28;20086;-49
2022/12/26 09:52:56;;;;;;;;;;;11.90;99.90;;;;;;5014617;28;20033;-50
2022/12/26 09:55:51;;;;;;;6.13;4.20;;;11.80;99.90;;;;;;5012308;28;20285;-52
2022/12/26 09:58:45;;;;;;;6.38;4.50;;;11.80;99.90;;;;;;5012284;28;20109;-52
2022/12/26 10:01:35;;;;;;;6.05;4.10;;;11.70;99.90;;;;;;5013235;28;20034;-51
2022/12/26 10:04:26;;;;;;;8.32;4.30;;;11.70;99.90;;;;;;5012878;28;20078;-55
2022/12/26 10:07:26;;;;;;;5.50;4.40;;;11.50;99.90;;;;;;5013454;28;20104;-56
2022/12/26 10:10:22;;;;;;;9.93;5.57;;;11.50;99.90;;;;;;5013027;28;20025;-53
2022/12/26 10:13:27;;;;;;;8.73;6.03;;;11.40;99.90;;;;;;5014636;28;20109;-53
2022/12/26 10:16:18;;;;;;;;;;;11.20;99.90;;;;;;5015450;28;20030;-56
2022/12/26 10:19:25;;;;;;;6.30;4.80;;;11.30;99.90;;;;;;5014761;28;19928;-58
2022/12/26 10:22:27;;;;;;;8.05;5.28;;;11.20;99.90;;;;;;5014021;28;20113;-59
2022/12/26 10:25:24;;;;;;;10.70;6.47;;;11.10;99.90;;;;;;5014209;28;20092;-55
2022/12/26 10:28:36;;;;;;;8.43;5.80;;;11.00;99.90;;;;;;5015215;28;20026;-55
2022/12/26 10:31:31;;;;;;;8.23;5.20;;;11.00;99.90;;;;;;5012816;28;20444;-58
2022/12/26 10:34:27;;;;;;;6.80;4.97;;;10.90;99.90;;;;;;5013952;28;20022;-57
2022/12/26 10:37:22;;;;;;;5.97;4.18;;;10.80;99.90;;;;;;5013191;28;20681;-57
2022/12/26 10:40:19;;;;;;;9.48;4.95;;;10.80;99.90;;;;;;5012792;28;20026;-56
2022/12/26 10:43:27;;;;;;;6.07;4.00;;;10.70;99.90;;;;;;5013756;28;20026;-57
2022/12/26 10:46:18;;;;;;;4.97;3.45;;;10.70;99.90;;;;;;5013150;28;20044;-58
2022/12/26 10:49:04;;;;;;;3.42;2.75;;;10.60;99.90;;;;;;5011538;28;20026;-59
2022/12/26 10:51:53;;;;;;;5.90;2.60;;;10.60;99.90;;;;;;5012734;28;20467;-56
2022/12/26 10:54:39;;;;;;;3.50;2.90;;;10.60;99.90;;;;;;5012921;28;20084;-51
2022/12/26 10:57:30;;;;;;;5.70;4.20;;;10.50;99.90;;;;;;4997969;28;20072;-56
2022/12/26 11:00:25;;;;;;;3.08;2.40;;;10.60;99.90;;;;;;5018832;28;20048;-54
2022/12/26 11:03:16;;;;;;;4.03;2.13;;;10.60;99.90;;;;;;5032772;28;20032;-57
2022/12/26 11:06:05;;;;;;;3.95;2.55;;;10.60;99.90;;;;;;5033067;28;20506;-57
2022/12/26 11:08:51;;;;;;;2.63;2.30;;;10.60;99.90;;;;;;5032990;28;20037;-54
2022/12/26 11:11:46;;;;;;;3.08;2.35;;;10.60;99.90;;;;;;5031920;28;20032;-54
2022/12/26 11:14:39;;;;;;;3.10;2.17;;;10.60;99.90;;;;;;5032640;28;20029;-52
2022/12/26 11:17:33;;;;;;;5.90;2.70;;;10.60;99.90;;;;;;5030020;28;20033;-55
2022/12/26 11:20:20;;;;;;;4.88;2.50;;;10.50;99.90;;;;;;5032709;28;20405;-60
2022/12/26 11:23:17;;;;;;;3.22;2.60;;;10.50;99.90;;;;;;5032758;28;20029;-52
2022/12/26 11:26:18;;;;;;;3.03;2.40;;;10.50;99.90;;;;;;5032575;28;20025;-55
2022/12/26 11:29:04;;;;;;;2.92;2.53;;;10.40;99.90;;;;;;5032592;28;20375;-50
2022/12/26 11:31:56;;;;;;;3.28;2.50;;;10.40;99.90;;;;;;5032491;28;20030;-52
2022/12/26 11:34:47;;;;;;;4.55;2.65;;;10.50;99.90;;;;;;5032482;28;20087;-54
2022/12/26 11:37:44;;;;;;;4.93;2.85;;;10.40;99.90;;;;;;5031431;28;20033;-55
2022/12/26 11:40:38;;;;;;;4.13;2.20;;;10.50;99.90;;;;;;5032152;28;20018;-57
2022/12/26 11:43:25;;;;;;;3.60;2.25;;;10.50;99.90;;;;;;5032455;28;20461;-57
2022/12/26 11:46:12;;;;;;;4.10;2.65;;;10.60;99.90;;;;;;5032414;28;20033;-49
2022/12/26 11:48:58;;;;;;;2.60;1.92;;;10.60;99.90;;;;;;5036574;28;20030;-54
2022/12/26 11:51:47;;;;;;;2.85;2.00;;;10.60;99.90;;;;;;5035878;28;20490;-56
2022/12/26 11:54:45;;;;;;;2.97;1.88;;;10.60;99.90;;;;;;5036231;28;20057;-51
2022/12/26 11:57:32;;;;;;;2.10;1.90;;;10.60;99.90;;;;;;5019137;28;20025;-53
2022/12/26 12:00:23;;;;;;;4.63;2.38;;;10.60;99.90;;;;;;5032638;28;20068;-51
2022/12/26 12:03:31;;;;;;;2.58;2.20;;;10.70;99.90;;;;;;5034516;28;20112;-51
2022/12/26 12:06:29;;;;;;;3.83;1.95;;;10.70;99.90;;;;;;5034550;28;20506;-53
2022/12/26 12:09:40;;;;;;;4.65;2.22;;;10.70;99.90;;;;;;5035767;28;20071;-50
2022/12/26 12:12:41;;;;;;;2.92;2.00;;;10.80;99.90;;;;;;5035348;28;20037;-46
2022/12/26 12:15:29;;;;;;;2.20;2.00;;;10.60;99.90;;;;;;5035672;28;20536;-50
2022/12/26 12:18:29;;;;;;;4.05;2.47;;;10.60;99.90;;;;;;5035916;28;20370;-47
2022/12/26 12:21:34;;;;;;;3.90;2.10;;;10.70;99.90;;;;;;5034317;28;20030;-52
2022/12/26 12:24:32;;;;;;;3.47;1.95;;;10.80;99.90;;;;;;5035867;28;20026;-50
2022/12/26 12:27:23;;;;;;;1.90;1.80;;;10.70;99.90;;;;;;5036143;28;20508;-50
2022/12/26 12:30:30;;;;;;;2.50;1.90;;;10.70;99.90;;;;;;5035516;28;20473;-50
2022/12/26 12:33:29;;;;;;;2.92;1.77;;;10.70;99.90;;;;;;5035593;28;20417;-48
2022/12/26 12:36:44;;;;;;;3.38;1.95;;;10.60;99.90;;;;;;5035591;28;20047;-55
2022/12/26 12:40:15;;;;;;;2.70;1.90;;;10.70;99.90;;;;;;5034359;28;20492;-47
2022/12/26 12:43:43;;;;;;;2.42;2.03;;;10.70;99.90;;;;;;5032938;28;20022;-52
2022/12/26 12:46:56;;;;;;;2.63;2.10;;;10.80;99.90;;;;;;5035120;28;20449;-52
2022/12/26 12:49:51;;;;;;;3.58;2.28;;;10.80;99.90;;;;;;5033808;28;20026;-51
2022/12/26 12:52:45;;;;;;;;;;;10.70;99.90;;;;;;5035650;28;20029;-56
2022/12/26 12:55:42;;;;;;;3.42;2.22;;;10.80;99.90;;;;;;5033222;28;20444;-52
2022/12/26 12:58:37;;;;;;;2.40;1.80;;;10.90;99.90;;;;;;5034349;28;20513;-52
2022/12/26 13:01:32;;;;;;;2.88;2.00;;;10.90;99.90;;;;;;5034492;28;20422;-57
2022/12/26 13:04:43;;;;;;;3.25;2.25;;;10.90;99.90;;;;;;5034790;28;20026;-52
2022/12/26 13:07:36;;;;;;;4.00;2.08;;;10.80;99.90;;;;;;5034665;28;20112;-51
2022/12/26 13:10:32;;;;;;;2.65;1.98;;;10.80;99.90;;;;;;5034671;28;20518;-55
2022/12/26 13:13:29;;;;;;;2.88;2.20;;;10.90;99.90;;;;;;5033780;28;20029;-48
2022/12/26 13:16:19;;;;;;;3.08;2.33;;;10.90;99.90;;;;;;5032968;28;20413;-50
2022/12/26 13:19:12;;;;;;;2.65;2.20;;;11.00;99.90;;;;;;5034610;28;20026;-48
2022/12/26 13:22:03;;;;;;;4.88;2.10;;;11.00;99.90;;;;;;5034992;28;20021;-49
2022/12/26 13:24:57;;;;;;;2.67;1.60;;;10.90;99.90;;;;;;5034504;28;20057;-48
2022/12/26 13:27:45;;;;;;;2.58;1.67;;;11.00;99.90;;;;;;5034775;28;20168;-49
2022/12/26 13:30:31;;;;;;;2.88;1.80;;;11.00;99.90;;;;;;5034078;28;20099;-52
2022/12/26 13:33:17;;;;;;;3.78;1.80;;;11.00;99.90;;;;;;5032103;28;20493;-51
2022/12/26 13:36:04;;;;;;;1.95;1.75;;;11.10;99.90;;;;;;5034282;28;20044;-53
2022/12/26 13:39:00;;;;;;;2.33;1.83;;;11.20;99.90;;;;;;5033176;28;20029;-48
2022/12/26 13:44:54;;;;;;;2.05;1.80;;;11.40;99.90;;;;;;5033628;28;20033;-49
2022/12/26 13:47:40;;;;;;;2.30;1.77;;;11.40;99.90;;;;;;5034139;28;20068;-49
2022/12/26 13:50:49;;;;;;;1.85;1.67;;;11.50;99.90;;;;;;5033944;28;20061;-50
2022/12/26 13:53:39;;;;;;;4.18;2.05;;;11.60;99.90;;;;;;5033989;28;20036;-49
2022/12/26 13:56:25;;;;;;;2.45;1.98;;;11.60;99.90;;;;;;5031433;28;20017;-47
2022/12/26 13:59:29;;;;;;;4.63;3.42;;;11.50;99.90;;;;;;5033734;28;20024;-48
2022/12/26 14:02:20;;;;;;;2.95;2.28;;;11.50;99.90;;;;;;5033397;28;20025;-50
2022/12/26 14:05:25;;;;;;;2.83;2.38;;;11.50;99.90;;;;;;5031630;28;20391;-53
2022/12/26 14:08:39;;;;;;;3.60;3.00;;;11.60;99.90;;;;;;5033619;28;20056;-54
2022/12/26 14:12:07;;;;;;;3.50;3.17;;;11.50;99.90;;;;;;5030422;28;20029;-49
2022/12/26 14:15:22;;;;;;;3.70;2.80;;;11.50;99.90;;;;;;5032626;28;20084;-50
2022/12/26 14:18:14;;;;;;;2.65;2.17;;;11.50;99.90;;;;;;5032502;28;20025;-49
2022/12/26 14:21:44;;;;;;;3.17;2.30;;;11.50;99.90;;;;;;5033504;28;20021;-54
2022/12/26 14:24:37;;;;;;;5.13;3.80;;;11.50;99.90;;;;;;5033711;28;20559;-55
2022/12/26 14:27:39;;;;;;;3.28;2.88;;;11.50;99.90;;;;;;5033373;28;20025;-49
2022/12/26 14:30:37;;;;;;;5.93;3.72;;;11.40;99.90;;;;;;5032770;28;20454;-49
2022/12/26 14:33:27;;;;;;;3.90;3.03;;;11.50;99.90;;;;;;5033708;28;20398;-50
2022/12/26 14:36:35;;;;;;;9.48;6.90;;;11.40;99.90;;;;;;5033421;28;20118;-48
2022/12/26 14:39:31;;;;;;;5.60;4.53;;;11.40;99.90;;;;;;5033677;28;20017;-49
2022/12/26 14:45:27;;;;;;;4.25;3.10;;;11.30;99.90;;;;;;5032790;28;20036;-51
2022/12/26 14:48:16;;;;;;;4.10;3.53;;;11.30;99.90;;;;;;5033163;28;20122;-49
2022/12/26 14:51:02;;;;;;;5.63;4.20;;;11.30;99.90;;;;;;5031692;28;20072;-50
2022/12/26 14:54:24;;;;;;;8.43;4.90;;;11.30;99.90;;;;;;5033214;28;20057;-48
2022/12/26 14:57:34;;;;;;;4.47;3.80;;;11.30;99.90;;;;;;5035473;28;20068;-47
2022/12/26 15:00:20;;;;;;;7.75;4.72;;;11.20;99.90;;;;;;5032666;28;20030;-49
2022/12/26 15:03:28;;;;;;;4.95;4.10;;;11.20;99.90;;;;;;5032710;28;20053;-48
2022/12/26 15:06:29;;;;;;;3.58;3.05;;;11.20;99.90;;;;;;5033092;28;20116;-48
2022/12/26 15:09:31;;;;;;;4.22;3.33;;;11.20;99.90;;;;;;5032648;28;20018;-52
2022/12/26 15:12:56;;;;;;;15.80;10.85;;;11.20;99.90;;;;;;5031762;28;20026;-47
2022/12/26 15:16:03;;;;;;;8.50;6.45;;;11.10;99.90;;;;;;5035173;28;20045;-49
2022/12/26 15:18:58;;;;;;;11.82;8.80;;;11.00;99.90;;;;;;5032541;28;20036;-47
2022/12/26 15:21:44;;;;;;;10.00;6.80;;;11.00;99.90;;;;;;5033019;28;20022;-53
2022/12/26 15:24:59;;;;;;;8.88;6.07;;;11.00;99.90;;;;;;5037032;28;20026;-55
2022/12/26 15:28:12;;;;;;;9.43;8.15;;;11.00;99.90;;;;;;5036751;28;20398;-50
2022/12/26 15:31:13;;;;;;;9.57;7.90;;;10.90;99.90;;;;;;5035127;28;20109;-51
2022/12/26 15:34:23;;;;;;;7.70;5.90;;;10.80;99.90;;;;;;5036728;28;20112;-47
2022/12/26 15:37:12;;;;;;;11.20;8.18;;;10.80;99.90;;;;;;5036304;28;20029;-48
2022/12/26 15:40:18;;;;;;;8.90;6.85;;;10.80;99.90;;;;;;5036372;28;20028;-55
2022/12/26 15:43:16;;;;;;;6.05;4.82;;;10.80;99.90;;;;;;5035331;28;20080;-54
2022/12/26 15:46:08;;;;;;;9.20;5.90;;;10.80;99.90;;;;;;5036523;28;20402;-51
2022/12/26 15:49:25;;;;;;;7.47;5.43;;;10.80;99.90;;;;;;5036247;28;20037;-50
2022/12/26 15:52:35;;;;;;;5.82;4.90;;;10.80;99.90;;;;;;5033868;28;20032;-52
2022/12/26 15:55:43;;;;;;;6.95;5.20;;;10.70;99.90;;;;;;5034129;28;20022;-49
2022/12/26 15:59:06;;;;;;;8.32;6.03;;;10.70;99.90;;;;;;5036306;28;20025;-51
2022/12/26 16:01:52;;;;;;;14.38;9.75;;;10.70;99.90;;;;;;5036093;28;20017;-47
2022/12/26 16:04:45;;;;;;;12.88;9.88;;;10.70;99.90;;;;;;5035031;28;20033;-50
2022/12/26 16:07:43;;;;;;;8.82;5.25;;;10.70;99.90;;;;;;5036030;28;20040;-48
2022/12/26 16:10:32;;;;;;;10.85;5.93;;;10.80;99.90;;;;;;5035956;28;20028;-51
2022/12/26 16:13:21;;;;;;;12.52;7.45;;;10.70;99.90;;;;;;5035155;28;20055;-54
2022/12/26 16:16:08;;;;;;;12.20;8.52;;;10.70;99.90;;;;;;5036248;28;20038;-57
2022/12/26 16:18:54;;;;;;;13.40;7.25;;;10.70;99.90;;;;;;5034945;28;20029;-53
2022/12/26 16:24:52;;;;;;;8.07;6.28;;;10.60;99.90;;;;;;5035829;28;20030;-50
2022/12/26 16:27:38;;;;;;;10.60;6.35;;;10.60;99.90;;;;;;5034941;28;20036;-52
2022/12/26 16:30:28;;;;;;;5.65;4.20;;;10.60;99.90;;;;;;5035920;28;20053;-51
2022/12/26 16:33:14;;;;;;;5.70;4.22;;;10.60;99.90;;;;;;5034971;28;20029;-50
2022/12/26 16:36:00;;;;;;;6.32;3.85;;;10.70;99.90;;;;;;5032915;28;20060;-49
2022/12/26 16:38:47;;;;;;;6.15;4.53;;;10.70;99.90;;;;;;5034406;28;20025;-51
2022/12/26 16:41:39;;;;;;;6.72;3.67;;;10.70;99.90;;;;;;5035538;28;20072;-48
2022/12/26 16:44:33;;;;;;;6.72;3.83;;;10.80;99.90;;;;;;5035644;28;20068;-48
2022/12/26 16:47:19;;;;;;;21.40;15.77;;;10.80;99.90;;;;;;5036590;28;20102;-49
2022/12/26 16:50:05;;;;;;;8.07;5.70;;;10.80;99.90;;;;;;5043065;28;20034;-51
2022/12/26 16:53:07;;;;;;;7.60;4.85;;;10.80;99.90;;;;;;5047300;28;20040;-54
2022/12/26 16:56:12;;;;;;;8.60;4.60;;;10.80;99.90;;;;;;5045636;28;20021;-52
2022/12/26 16:59:12;;;;;;;5.38;4.53;;;10.80;99.90;;;;;;5038646;28;20057;-57
2022/12/26 17:01:59;;;;;;;6.32;5.00;;;10.80;99.90;;;;;;5034699;28;20075;-48
2022/12/26 17:04:54;;;;;;;6.03;4.22;;;10.80;99.90;;;;;;5034742;28;20030;-52
2022/12/26 17:07:44;;;;;;;7.15;6.03;;;10.90;99.90;;;;;;5034487;28;20449;-56
2022/12/26 17:10:33;;;;;;;19.50;16.83;;;10.90;99.90;;;;;;5034184;28;20083;-48